Time;durP1;ratioP1;P1;durP2;ratioP2;P2;SDS_P1;SDS_P2;PMS_P1;PMS_P2;Temp;Humidity;BMP_temperature;BMP_pressure;BME280_temperature;BME280_humidity;BME280_pressure;Samples;Min_cycle;Max_cycle;Signal;HPM_P1;HPM_P2
2021/08/21 00:00:13;;;;;;;8.65;7.40;;;19.10;92.10;;;;;;4861161;29;20076;-84
2021/08/21 00:02:39;;;;;;;11.23;7.90;;;19.10;92.10;;;;;;4862351;29;20046;-84
2021/08/21 00:05:06;;;;;;;9.85;8.20;;;19.10;92.10;;;;;;4862539;29;20391;-84
2021/08/21 00:07:32;;;;;;;10.05;8.18;;;19.00;92.10;;;;;;4861647;29;20056;-84
2021/08/21 00:09:59;;;;;;;11.60;9.25;;;19.00;92.10;;;;;;4862289;29;20053;-84
2021/08/21 00:12:25;;;;;;;9.43;8.07;;;19.00;92.20;;;;;;4862664;29;20045;-85
2021/08/21 00:14:50;;;;;;;9.23;8.05;;;19.00;92.20;;;;;;4860853;29;20494;-84
2021/08/21 00:17:16;;;;;;;10.07;8.68;;;19.00;92.10;;;;;;4861918;29;20101;-84
2021/08/21 00:19:41;;;;;;;10.80;9.07;;;19.00;92.20;;;;;;4862487;29;20406;-84
2021/08/21 00:22:09;;;;;;;11.55;9.27;;;18.90;92.20;;;;;;4861605;29;20061;-84
2021/08/21 00:24:35;;;;;;;10.73;8.60;;;18.90;92.30;;;;;;4862054;29;20518;-85
2021/08/21 00:27:00;;;;;;;10.50;8.32;;;18.90;92.20;;;;;;4861866;29;20064;-85
2021/08/21 00:29:26;;;;;;;11.05;9.07;;;18.90;92.10;;;;;;4861199;29;20417;-84
2021/08/21 00:31:52;;;;;;;11.10;8.93;;;18.90;92.20;;;;;;4862063;29;20073;-84
2021/08/21 00:34:18;;;;;;;11.13;9.50;;;18.80;92.10;;;;;;4862512;29;20137;-84
2021/08/21 00:36:44;;;;;;;12.77;9.45;;;18.80;92.30;;;;;;4861517;29;20050;-85
2021/08/21 00:39:10;;;;;;;12.93;9.88;;;18.80;92.20;;;;;;4862224;29;20050;-85
2021/08/21 00:41:37;;;;;;;13.00;9.50;;;18.80;92.30;;;;;;4862002;29;20122;-85
2021/08/21 00:44:06;;;;;;;11.20;9.73;;;18.70;92.30;;;;;;4861199;29;20519;-85
2021/08/21 00:46:32;;;;;;;13.57;9.95;;;18.70;92.30;;;;;;4862269;29;20061;-85
2021/08/21 00:48:58;;;;;;;11.88;9.68;;;18.70;92.40;;;;;;4861942;29;20085;-85
2021/08/21 00:51:23;;;;;;;11.32;9.90;;;18.70;92.30;;;;;;4861393;29;20088;-84
2021/08/21 00:53:49;;;;;;;11.18;9.98;;;18.60;92.30;;;;;;4862154;29;20061;-84
2021/08/21 00:56:15;;;;;;;11.40;9.48;;;18.70;92.30;;;;;;4862022;29;20080;-84
2021/08/21 00:58:41;;;;;;;12.20;10.55;;;18.70;92.30;;;;;;4865002;29;20056;-83
2021/08/21 01:01:08;;;;;;;14.00;10.00;;;18.70;92.30;;;;;;4865565;29;20054;-84
2021/08/21 01:03:34;;;;;;;11.82;10.27;;;18.60;92.20;;;;;;4865188;29;20057;-85
2021/08/21 01:06:00;;;;;;;11.52;10.00;;;18.60;92.20;;;;;;4865618;29;20053;-84
2021/08/21 01:08:26;;;;;;;13.52;10.93;;;18.60;92.20;;;;;;4865427;29;20478;-85
2021/08/21 01:10:52;;;;;;;12.48;10.15;;;18.50;92.30;;;;;;4864788;29;20049;-85
2021/08/21 01:13:17;;;;;;;11.68;10.15;;;18.50;92.40;;;;;;4865602;29;20053;-84
2021/08/21 01:15:43;;;;;;;11.85;10.35;;;18.50;92.40;;;;;;4865407;29;20084;-85
2021/08/21 01:18:10;;;;;;;12.55;10.55;;;18.50;92.50;;;;;;4864652;29;20501;-85
2021/08/21 01:20:36;;;;;;;13.30;10.90;;;18.40;92.50;;;;;;4864700;29;20053;-85
2021/08/21 01:23:02;;;;;;;11.95;10.38;;;18.40;92.50;;;;;;4864715;29;20447;-85
2021/08/21 01:25:30;;;;;;;13.10;10.70;;;18.40;92.60;;;;;;4863520;29;20109;-85
2021/08/21 01:27:57;;;;;;;12.65;10.30;;;18.40;92.40;;;;;;4864266;29;20067;-85
2021/08/21 01:30:22;;;;;;;12.43;10.13;;;18.30;92.60;;;;;;4864611;29;20413;-85
2021/08/21 01:32:48;;;;;;;11.82;9.88;;;18.30;92.70;;;;;;4864509;29;20050;-84
2021/08/21 01:35:17;;;;;;;12.38;10.95;;;18.30;92.70;;;;;;4865389;29;20057;-85
2021/08/21 01:37:43;;;;;;;11.95;10.05;;;18.30;92.70;;;;;;4864844;29;20061;-84
2021/08/21 01:40:09;;;;;;;14.13;11.23;;;18.30;92.60;;;;;;4863761;29;20067;-85
2021/08/21 01:42:37;;;;;;;12.27;10.77;;;18.20;92.60;;;;;;4863961;29;20109;-85
2021/08/21 01:45:08;;;;;;;12.80;10.15;;;18.20;92.70;;;;;;4863968;29;20406;-84
2021/08/21 01:47:33;;;;;;;13.27;10.77;;;18.20;92.50;;;;;;4863667;29;20061;-85
2021/08/21 01:50:03;;;;;;;15.02;11.07;;;18.20;92.60;;;;;;4864291;29;20057;-85
2021/08/21 01:52:29;;;;;;;15.18;11.07;;;18.10;92.70;;;;;;4863981;29;20132;-85
2021/08/21 01:54:55;;;;;;;13.35;11.40;;;18.10;92.80;;;;;;4863315;29;20141;-85
2021/08/21 01:57:20;;;;;;;12.93;10.70;;;18.10;92.90;;;;;;4864044;29;20136;-84
2021/08/21 01:59:50;;;;;;;13.80;11.32;;;18.00;92.70;;;;;;4863173;29;20106;-85
2021/08/21 02:02:18;;;;;;;13.52;11.07;;;18.10;92.60;;;;;;4864023;29;20187;-84
2021/08/21 02:04:43;;;;;;;13.35;11.07;;;18.10;92.80;;;;;;4863603;29;20049;-84
2021/08/21 02:07:09;;;;;;;14.00;11.25;;;18.00;92.80;;;;;;4862910;29;20045;-84
2021/08/21 02:09:36;;;;;;;13.27;11.13;;;18.00;92.90;;;;;;4863514;29;20077;-84
2021/08/21 02:12:04;;;;;;;13.82;11.10;;;18.00;92.90;;;;;;4863765;29;20136;-85
2021/08/21 02:14:31;;;;;;;14.73;11.77;;;18.00;92.90;;;;;;4862902;29;20468;-85
2021/08/21 02:17:01;;;;;;;15.88;11.90;;;17.90;92.90;;;;;;4863696;29;20053;-85
2021/08/21 02:19:28;;;;;;;13.10;10.77;;;18.00;93.00;;;;;;4863536;29;20557;-84
2021/08/21 02:21:55;;;;;;;12.90;11.07;;;18.00;93.00;;;;;;4862801;29;20502;-85
2021/08/21 02:24:24;;;;;;;12.68;10.27;;;17.90;93.00;;;;;;4863180;29;20056;-85
2021/08/21 02:26:56;;;;;;;13.20;10.75;;;17.90;92.80;;;;;;4863312;29;20128;-85
2021/08/21 02:29:22;;;;;;;13.48;11.27;;;17.90;92.60;;;;;;4862611;29;20054;-84
2021/08/21 02:31:47;;;;;;;13.65;10.60;;;17.90;92.70;;;;;;4863812;29;20050;-85
2021/08/21 02:34:13;;;;;;;13.30;11.00;;;17.90;92.70;;;;;;4863582;29;20114;-85
2021/08/21 02:36:41;;;;;;;13.00;10.57;;;17.90;92.70;;;;;;4862314;29;20124;-84
2021/08/21 02:39:07;;;;;;;13.48;11.35;;;17.90;92.70;;;;;;4862983;29;20486;-84
2021/08/21 02:41:34;;;;;;;13.23;11.27;;;17.90;92.70;;;;;;4863199;29;20049;-85
2021/08/21 02:44:00;;;;;;;11.23;9.80;;;17.80;92.60;;;;;;4862350;29;20140;-85
2021/08/21 02:46:25;;;;;;;13.70;11.10;;;17.90;92.70;;;;;;4863214;29;20137;-85
2021/08/21 02:48:51;;;;;;;13.88;11.35;;;17.80;92.90;;;;;;4862864;29;20062;-84
2021/08/21 02:51:17;;;;;;;12.30;10.73;;;17.80;92.80;;;;;;4863078;29;20060;-85
2021/08/21 02:53:42;;;;;;;12.98;11.32;;;17.80;92.70;;;;;;4863521;29;20509;-84
2021/08/21 02:56:08;;;;;;;13.60;10.90;;;17.80;92.90;;;;;;4862792;29;20053;-84
2021/08/21 02:58:34;;;;;;;12.25;10.90;;;17.80;92.80;;;;;;4863386;29;20102;-85
2021/08/21 03:00:59;;;;;;;12.32;10.65;;;17.80;92.90;;;;;;4863585;29;20053;-84
2021/08/21 03:03:25;;;;;;;16.15;11.38;;;17.80;93.00;;;;;;4863372;29;20057;-85
2021/08/21 03:05:50;;;;;;;12.88;11.00;;;17.80;93.00;;;;;;4863754;29;20069;-85
2021/08/21 03:08:16;;;;;;;12.65;10.68;;;17.70;93.10;;;;;;4863169;29;20504;-85
2021/08/21 03:10:42;;;;;;;14.18;10.25;;;17.80;93.10;;;;;;4862647;29;20054;-85
2021/08/21 03:13:07;;;;;;;14.88;11.48;;;17.70;93.00;;;;;;4862576;29;20046;-85
2021/08/21 03:15:33;;;;;;;13.32;11.02;;;17.70;93.10;;;;;;4863030;29;20054;-84
2021/08/21 03:17:59;;;;;;;13.55;11.02;;;17.70;93.00;;;;;;4862573;29;20049;-84
2021/08/21 03:20:26;;;;;;;12.50;10.45;;;17.70;93.10;;;;;;4862334;29;20069;-84
2021/08/21 03:22:52;;;;;;;13.13;10.63;;;17.70;93.20;;;;;;4862188;29;20050;-85
2021/08/21 03:25:18;;;;;;;14.27;10.73;;;17.70;93.00;;;;;;4862501;29;20061;-85
2021/08/21 03:27:44;;;;;;;13.07;10.85;;;17.60;93.00;;;;;;4862817;29;20053;-84
2021/08/21 03:30:10;;;;;;;14.40;11.20;;;17.60;93.00;;;;;;4862962;29;20057;-85
2021/08/21 03:32:36;;;;;;;15.07;10.57;;;17.60;93.00;;;;;;4861870;29;20394;-85
2021/08/21 03:35:03;;;;;;;12.68;10.52;;;17.60;93.30;;;;;;4862745;29;20057;-85
2021/08/21 03:37:29;;;;;;;12.85;10.77;;;17.50;92.90;;;;;;4863037;29;20049;-84
2021/08/21 03:39:55;;;;;;;15.82;11.30;;;17.60;93.00;;;;;;4861929;29;20084;-84
2021/08/21 03:42:21;;;;;;;11.43;9.82;;;17.50;93.00;;;;;;4862173;29;20490;-85
2021/08/21 03:44:47;;;;;;;14.15;11.18;;;17.60;92.90;;;;;;4862175;29;20063;-85
2021/08/21 03:47:12;;;;;;;11.75;10.25;;;17.50;93.10;;;;;;4861372;29;20128;-85
2021/08/21 03:49:38;;;;;;;12.52;10.60;;;17.50;92.90;;;;;;4862028;29;20136;-85
2021/08/21 03:52:04;;;;;;;13.07;10.35;;;17.40;93.00;;;;;;4861898;29;20057;-85
2021/08/21 03:54:30;;;;;;;12.68;10.02;;;17.50;93.00;;;;;;4861270;29;20407;-84
2021/08/21 03:56:57;;;;;;;12.73;11.02;;;17.40;92.90;;;;;;4862447;29;20046;-84
2021/08/21 03:59:22;;;;;;;12.02;10.73;;;17.40;93.00;;;;;;4862878;29;20045;-84
2021/08/21 04:01:48;;;;;;;13.00;10.90;;;17.40;93.10;;;;;;4863189;29;20163;-84
2021/08/21 04:04:14;;;;;;;12.32;10.70;;;17.40;93.00;;;;;;4862334;29;20068;-84
2021/08/21 04:06:41;;;;;;;13.45;10.98;;;17.40;93.00;;;;;;4861035;29;20399;-85
2021/08/21 04:09:07;;;;;;;14.07;11.43;;;17.30;93.00;;;;;;4861822;29;20053;-84
2021/08/21 04:11:32;;;;;;;12.93;11.52;;;17.30;93.00;;;;;;4861746;29;20057;-84
2021/08/21 04:13:58;;;;;;;13.98;11.45;;;17.30;93.50;;;;;;4861239;29;20097;-85
2021/08/21 04:16:24;;;;;;;13.38;11.18;;;17.30;93.30;;;;;;4861657;29;20137;-84
2021/08/21 04:18:50;;;;;;;13.68;11.45;;;17.30;93.40;;;;;;4861330;29;20053;-85
2021/08/21 04:21:15;;;;;;;14.48;11.60;;;17.30;93.40;;;;;;4860822;29;20057;-85
2021/08/21 04:23:41;;;;;;;13.02;11.18;;;17.30;93.40;;;;;;4861752;29;20076;-85
2021/08/21 04:26:07;;;;;;;14.38;11.88;;;17.30;93.20;;;;;;4861259;29;20064;-85
2021/08/21 04:28:33;;;;;;;14.68;11.57;;;17.20;93.30;;;;;;4860907;29;20546;-85
2021/08/21 04:31:00;;;;;;;13.07;11.10;;;17.30;93.30;;;;;;4861275;29;20050;-85
2021/08/21 04:33:27;;;;;;;14.27;11.55;;;17.20;93.30;;;;;;4862438;29;20072;-84
2021/08/21 04:35:53;;;;;;;15.60;12.80;;;17.20;93.30;;;;;;4861858;29;20096;-84
2021/08/21 04:38:19;;;;;;;14.88;12.27;;;17.20;93.50;;;;;;4862440;29;20121;-84
2021/08/21 04:40:47;;;;;;;13.95;11.57;;;17.20;93.90;;;;;;4862147;29;20383;-84
2021/08/21 04:43:14;;;;;;;15.40;12.70;;;17.20;93.60;;;;;;4861578;29;20050;-84
2021/08/21 04:45:40;;;;;;;15.07;12.27;;;17.20;93.60;;;;;;4862204;29;20049;-84
2021/08/21 04:48:08;;;;;;;14.82;12.52;;;17.20;93.60;;;;;;4861932;29;20057;-84
2021/08/21 04:50:35;;;;;;;15.15;12.77;;;17.20;93.60;;;;;;4861281;29;20486;-84
2021/08/21 04:53:05;;;;;;;14.15;12.10;;;17.10;93.60;;;;;;4862241;29;20057;-85
2021/08/21 04:55:32;;;;;;;14.70;12.10;;;17.10;93.60;;;;;;4861398;29;20056;-84
2021/08/21 04:57:58;;;;;;;15.30;12.73;;;17.10;93.50;;;;;;4862204;29;20144;-84
2021/08/21 05:00:25;;;;;;;15.45;12.70;;;17.10;93.40;;;;;;4861997;29;20092;-84
2021/08/21 05:02:57;;;;;;;15.18;13.35;;;17.10;93.60;;;;;;4860499;29;20469;-84
2021/08/21 05:05:24;;;;;;;14.38;12.18;;;17.00;93.40;;;;;;4861414;29;20447;-84
2021/08/21 05:07:50;;;;;;;14.48;12.77;;;17.00;93.30;;;;;;4861135;29;20110;-85
2021/08/21 05:10:16;;;;;;;14.57;11.68;;;17.00;93.30;;;;;;4860416;29;20053;-85
2021/08/21 05:12:44;;;;;;;15.23;12.82;;;17.00;93.10;;;;;;4861120;29;20136;-84
2021/08/21 05:15:10;;;;;;;16.25;12.95;;;17.00;93.20;;;;;;4861594;29;20142;-84
2021/08/21 05:17:37;;;;;;;14.85;12.15;;;17.00;93.30;;;;;;4860864;29;20186;-84
2021/08/21 05:23:03;;;;;;;28.17;20.58;;;17.00;93.20;;;;;;4850568;29;20182;-84
2021/08/21 05:25:28;;;;;;;19.75;16.88;;;16.90;93.20;;;;;;4860121;29;20422;-84
2021/08/21 05:27:54;;;;;;;17.30;13.93;;;16.90;93.10;;;;;;4861144;29;20069;-83
2021/08/21 05:30:20;;;;;;;28.80;19.13;;;17.00;93.10;;;;;;4861624;29;20052;-84
2021/08/21 05:32:46;;;;;;;18.27;14.43;;;17.00;93.00;;;;;;4861150;29;20084;-84
2021/08/21 05:35:11;;;;;;;18.10;15.07;;;17.00;93.00;;;;;;4861479;29;20194;-84
2021/08/21 05:37:37;;;;;;;18.10;14.50;;;17.00;93.10;;;;;;4861172;29;20053;-84
2021/08/21 05:40:03;;;;;;;18.52;15.20;;;17.00;93.30;;;;;;4861230;29;20514;-85
2021/08/21 05:42:30;;;;;;;16.77;14.35;;;17.00;93.30;;;;;;4861994;29;20051;-84
2021/08/21 05:44:56;;;;;;;22.83;18.02;;;17.00;93.30;;;;;;4864353;29;20057;-84
2021/08/21 05:47:22;;;;;;;18.45;14.95;;;17.00;93.20;;;;;;4865156;29;20536;-84
2021/08/21 05:49:48;;;;;;;17.33;14.43;;;17.00;93.20;;;;;;4864993;29;20092;-84
2021/08/21 05:52:13;;;;;;;25.85;16.23;;;17.00;93.30;;;;;;4864067;29;20108;-84
2021/08/21 05:54:39;;;;;;;17.42;15.52;;;17.00;93.30;;;;;;4864783;29;20053;-84
2021/08/21 05:57:05;;;;;;;19.92;15.20;;;17.00;93.30;;;;;;4864630;29;20494;-84
2021/08/21 05:59:31;;;;;;;17.48;15.40;;;17.00;93.10;;;;;;4863426;29;20087;-84
2021/08/21 06:01:58;;;;;;;23.60;16.25;;;17.00;93.30;;;;;;4863998;29;20509;-83
2021/08/21 06:04:23;;;;;;;17.15;14.95;;;17.00;93.30;;;;;;4863928;29;20061;-85
2021/08/21 06:06:49;;;;;;;17.67;15.07;;;17.00;93.40;;;;;;4863109;29;20106;-84
2021/08/21 06:09:19;;;;;;;16.80;15.00;;;17.00;93.50;;;;;;4863675;29;20057;-84
2021/08/21 06:11:45;;;;;;;17.80;15.90;;;17.00;93.90;;;;;;4863560;29;20410;-84
2021/08/21 06:14:11;;;;;;;18.88;16.55;;;17.00;93.50;;;;;;4862886;29;20046;-84
2021/08/21 06:16:36;;;;;;;17.52;15.63;;;17.00;93.30;;;;;;4863525;29;20068;-84
2021/08/21 06:19:02;;;;;;;16.95;15.15;;;17.00;93.20;;;;;;4863679;29;20080;-84
2021/08/21 06:21:28;;;;;;;19.27;16.98;;;17.10;93.10;;;;;;4863898;29;20064;-84
2021/08/21 06:23:53;;;;;;;25.10;18.73;;;17.10;93.40;;;;;;4864396;29;20416;-84
2021/08/21 06:26:19;;;;;;;67.03;23.27;;;17.10;93.60;;;;;;4863814;29;20053;-84
2021/08/21 06:28:45;;;;;;;44.45;22.90;;;17.10;94.00;;;;;;4863123;29;20065;-84
2021/08/21 06:31:10;;;;;;;17.33;15.40;;;17.20;94.50;;;;;;4864490;29;20049;-84
2021/08/21 06:33:36;;;;;;;51.17;21.25;;;17.20;94.00;;;;;;4863389;29;20451;-84
2021/08/21 06:36:02;;;;;;;21.25;16.33;;;17.20;94.10;;;;;;4862451;29;20059;-84
2021/08/21 06:38:28;;;;;;;50.58;22.48;;;17.20;93.90;;;;;;4863150;29;20494;-84
2021/08/21 06:40:54;;;;;;;47.10;24.40;;;17.20;94.20;;;;;;4862915;29;20064;-83
2021/08/21 06:43:20;;;;;;;63.17;23.73;;;17.30;94.80;;;;;;4862066;29;20049;-84
2021/08/21 06:45:45;;;;;;;21.77;19.48;;;17.30;95.00;;;;;;4863971;29;20068;-84
2021/08/21 06:48:11;;;;;;;27.90;21.00;;;17.30;95.10;;;;;;4862695;29;20063;-84
2021/08/21 06:50:37;;;;;;;20.98;18.10;;;17.30;94.60;;;;;;4863581;29;20125;-84
2021/08/21 06:53:03;;;;;;;34.47;20.23;;;17.40;94.40;;;;;;4863727;29;20053;-84
2021/08/21 06:55:30;;;;;;;21.30;18.77;;;17.40;94.60;;;;;;4862012;29;20496;-84
2021/08/21 06:57:56;;;;;;;48.67;21.42;;;17.40;94.40;;;;;;4862958;29;20494;-84
2021/08/21 07:00:22;;;;;;;28.20;21.67;;;17.40;94.70;;;;;;4862680;29;20057;-84
2021/08/21 07:02:48;;;;;;;23.75;19.98;;;17.50;94.90;;;;;;4861913;29;20053;-84
2021/08/21 07:05:13;;;;;;;19.55;17.42;;;17.50;94.80;;;;;;4862646;29;20053;-84
2021/08/21 07:07:39;;;;;;;33.38;23.10;;;17.50;94.50;;;;;;4862609;29;20057;-84
2021/08/21 07:10:06;;;;;;;28.13;21.50;;;17.50;94.80;;;;;;4862331;29;20517;-84
2021/08/21 07:12:31;;;;;;;24.17;19.83;;;17.60;94.80;;;;;;4863381;29;20049;-84
2021/08/21 07:14:57;;;;;;;26.63;22.25;;;17.60;94.70;;;;;;4862975;29;20064;-85
2021/08/21 07:17:23;;;;;;;29.83;23.88;;;17.70;94.90;;;;;;4862699;29;20408;-84
2021/08/21 07:19:49;;;;;;;31.27;23.90;;;17.70;95.20;;;;;;4863921;29;20060;-84
2021/08/21 07:22:14;;;;;;;37.67;27.77;;;17.70;94.90;;;;;;4863270;29;20073;-84
2021/08/21 07:24:40;;;;;;;27.63;22.50;;;17.80;95.20;;;;;;4863420;29;20054;-85
2021/08/21 07:27:06;;;;;;;38.92;29.95;;;17.80;94.90;;;;;;4863190;29;20506;-84
2021/08/21 07:29:32;;;;;;;35.70;27.90;;;17.90;95.10;;;;;;4863233;29;20132;-85
2021/08/21 07:31:58;;;;;;;34.38;27.20;;;17.90;95.20;;;;;;4861859;29;20494;-84
2021/08/21 07:34:24;;;;;;;28.92;23.45;;;18.00;94.90;;;;;;4862303;29;20053;-85
2021/08/21 07:36:50;;;;;;;30.45;23.95;;;18.00;94.70;;;;;;4862387;29;20061;-85
2021/08/21 07:39:15;;;;;;;37.20;29.00;;;18.10;94.90;;;;;;4862022;29;20084;-84
2021/08/21 07:41:41;;;;;;;37.45;29.30;;;18.10;95.10;;;;;;4862443;29;20137;-84
2021/08/21 07:44:07;;;;;;;31.85;26.20;;;18.20;95.40;;;;;;4862744;29;20101;-83
2021/08/21 07:46:32;;;;;;;37.25;29.15;;;18.20;95.40;;;;;;4862015;29;20045;-83
2021/08/21 07:48:58;;;;;;;31.15;25.65;;;18.30;95.50;;;;;;4863254;29;20060;-84
2021/08/21 07:51:24;;;;;;;26.75;22.27;;;18.40;95.30;;;;;;4861910;29;20057;-84
2021/08/21 07:53:50;;;;;;;33.15;27.52;;;18.40;95.00;;;;;;4862374;29;20482;-84
2021/08/21 07:56:15;;;;;;;37.03;29.45;;;18.50;95.10;;;;;;4862646;29;20144;-84
2021/08/21 07:58:41;;;;;;;37.15;30.27;;;18.60;95.20;;;;;;4862304;29;20085;-84
2021/08/21 08:01:07;;;;;;;36.33;29.63;;;18.60;95.10;;;;;;4862214;29;20057;-84
2021/08/21 08:03:33;;;;;;;36.90;30.23;;;18.70;95.00;;;;;;4862402;29;20053;-84
2021/08/21 08:05:59;;;;;;;30.48;24.58;;;18.70;94.90;;;;;;4861048;29;20057;-83
2021/08/21 08:08:25;;;;;;;36.45;30.10;;;18.80;94.60;;;;;;4862610;29;20451;-84
2021/08/21 08:10:51;;;;;;;35.78;30.98;;;18.80;94.50;;;;;;4862343;29;20490;-83
2021/08/21 08:13:17;;;;;;;40.42;32.35;;;18.80;94.60;;;;;;4861272;29;20422;-84
2021/08/21 08:15:44;;;;;;;33.88;28.55;;;18.90;94.50;;;;;;4862247;29;20060;-84
2021/08/21 08:18:10;;;;;;;36.22;30.13;;;18.90;94.20;;;;;;4862194;29;20053;-85
2021/08/21 08:20:36;;;;;;;28.05;24.77;;;19.00;94.10;;;;;;4861402;29;20049;-84
2021/08/21 08:23:04;;;;;;;35.10;28.67;;;19.00;93.90;;;;;;4862120;29;20050;-84
2021/08/21 08:25:30;;;;;;;35.72;30.75;;;19.10;93.70;;;;;;4861933;29;20053;-83
2021/08/21 08:27:56;;;;;;;38.25;31.83;;;19.10;93.60;;;;;;4861030;29;20140;-84
2021/08/21 08:30:23;;;;;;;37.17;30.73;;;19.20;93.80;;;;;;4861912;29;20065;-83
2021/08/21 08:32:49;;;;;;;30.50;26.02;;;19.20;94.00;;;;;;4861651;29;20041;-83
2021/08/21 08:35:15;;;;;;;31.73;27.20;;;19.30;93.60;;;;;;4860908;29;20117;-83
2021/08/21 08:37:41;;;;;;;32.45;26.92;;;19.40;93.50;;;;;;4861899;29;20056;-84
2021/08/21 08:40:09;;;;;;;31.98;28.25;;;19.40;93.60;;;;;;4862265;29;20061;-83
2021/08/21 08:42:38;;;;;;;30.73;23.88;;;19.50;93.40;;;;;;4861266;29;20134;-83
2021/08/21 08:45:04;;;;;;;28.52;23.17;;;19.60;93.10;;;;;;4861882;29;20163;-83
2021/08/21 08:47:30;;;;;;;25.40;21.60;;;19.60;92.90;;;;;;4861740;29;20090;-83
2021/08/21 08:50:03;;;;;;;24.95;21.75;;;19.70;92.70;;;;;;4860624;29;20069;-83
2021/08/21 08:52:29;;;;;;;23.08;19.85;;;19.70;92.50;;;;;;4862055;29;20077;-83
2021/08/21 08:54:55;;;;;;;21.77;19.48;;;19.80;92.50;;;;;;4860928;29;20397;-83
2021/08/21 08:57:35;;;;;;;25.13;21.25;;;19.90;92.30;;;;;;4861299;29;20049;-83
2021/08/21 09:00:04;;;;;;;23.35;19.98;;;19.90;92.30;;;;;;4861512;29;20057;-83
2021/08/21 09:02:35;;;;;;;32.15;26.40;;;19.90;92.20;;;;;;4860535;29;20053;-84
2021/08/21 09:05:03;;;;;;;26.05;22.95;;;20.00;92.10;;;;;;4861793;29;20053;-83
2021/08/21 09:07:46;;;;;;;28.48;23.75;;;20.00;91.90;;;;;;4861731;29;20124;-84
2021/08/21 09:10:29;;;;;;;26.90;21.65;;;20.00;91.60;;;;;;4860425;29;20061;-83
2021/08/21 09:13:05;;;;;;;27.05;22.88;;;20.10;91.60;;;;;;4860423;29;20152;-84
2021/08/21 09:15:34;;;;;;;23.25;20.50;;;20.10;91.90;;;;;;4860714;29;20084;-84
2021/08/21 09:18:13;;;;;;;25.35;21.92;;;20.20;91.70;;;;;;4861059;29;20146;-84
2021/08/21 09:20:48;;;;;;;25.92;22.92;;;20.30;91.50;;;;;;4864163;29;20057;-83
2021/08/21 09:23:15;;;;;;;27.10;23.20;;;20.30;91.40;;;;;;4862919;29;20413;-84
2021/08/21 09:25:41;;;;;;;26.98;21.63;;;20.40;91.40;;;;;;4863888;29;20060;-83
2021/08/21 09:28:20;;;;;;;24.77;19.52;;;20.40;91.70;;;;;;4863558;29;20063;-85
2021/08/21 09:30:46;;;;;;;23.63;20.75;;;20.50;91.10;;;;;;4863025;29;20406;-85
2021/08/21 09:33:17;;;;;;;21.30;18.63;;;20.50;91.10;;;;;;4864126;29;20403;-84
2021/08/21 09:35:45;;;;;;;19.75;17.15;;;20.60;91.00;;;;;;4863881;29;20102;-85
2021/08/21 09:38:11;;;;;;;22.55;18.88;;;20.60;90.60;;;;;;4863221;29;20053;-85
2021/08/21 09:40:39;;;;;;;22.98;17.83;;;20.70;90.50;;;;;;4863912;29;20054;-85
2021/08/21 09:43:21;;;;;;;19.10;16.40;;;20.70;90.00;;;;;;4863462;29;20045;-84
2021/08/21 09:45:47;;;;;;;17.95;15.30;;;20.70;90.20;;;;;;4862629;29;20105;-84
2021/08/21 09:48:13;;;;;;;21.60;15.82;;;20.80;90.10;;;;;;4863360;29;20427;-85
2021/08/21 09:50:43;;;;;;;18.08;15.40;;;20.80;90.30;;;;;;4863153;29;20058;-84
2021/08/21 09:53:11;;;;;;;17.23;14.45;;;20.90;89.60;;;;;;4863264;29;20053;-85
2021/08/21 09:55:39;;;;;;;18.10;13.95;;;21.00;89.10;;;;;;4863975;29;20113;-85
2021/08/21 09:58:08;;;;;;;21.52;15.82;;;21.00;89.30;;;;;;4862987;29;20046;-85
2021/08/21 10:00:36;;;;;;;19.00;15.07;;;21.10;88.80;;;;;;4863895;29;20054;-84
2021/08/21 10:03:05;;;;;;;19.02;14.98;;;21.10;88.80;;;;;;4863955;29;20057;-85
2021/08/21 10:05:32;;;;;;;15.35;11.65;;;21.20;89.50;;;;;;4862013;29;20136;-84
2021/08/21 10:08:02;;;;;;;13.95;12.00;;;21.30;87.90;;;;;;4863575;29;20059;-85
2021/08/21 10:10:37;;;;;;;15.63;12.52;;;21.40;86.90;;;;;;4863628;29;20494;-85
2021/08/21 10:13:09;;;;;;;14.77;10.77;;;21.40;86.90;;;;;;4863400;29;20060;-84
2021/08/21 10:15:41;;;;;;;13.60;10.37;;;21.50;85.90;;;;;;4863304;29;20054;-85
2021/08/21 10:18:08;;;;;;;15.20;12.48;;;21.60;85.80;;;;;;4863643;29;20065;-85
2021/08/21 10:20:35;;;;;;;15.80;12.60;;;21.60;85.50;;;;;;4863133;29;20453;-85
2021/08/21 10:23:26;;;;;;;11.70;9.25;;;21.70;85.70;;;;;;4863754;29;20417;-85
2021/08/21 10:26:01;;;;;;;10.75;7.60;;;21.80;85.30;;;;;;4863480;29;20058;-84
2021/08/21 10:28:40;;;;;;;8.80;6.88;;;21.80;85.00;;;;;;4861957;29;20494;-85
2021/08/21 10:31:06;;;;;;;11.63;9.07;;;21.90;82.60;;;;;;4863556;29;20057;-84
2021/08/21 10:33:52;;;;;;;9.60;7.93;;;21.90;82.50;;;;;;4862011;29;20046;-84
2021/08/21 10:36:41;;;;;;;7.82;6.10;;;22.00;82.50;;;;;;4855961;29;20061;-85
2021/08/21 10:39:39;;;;;;;9.00;6.78;;;22.10;82.40;;;;;;4863274;29;20061;-85
2021/08/21 10:42:33;;;;;;;9.25;7.05;;;22.10;82.30;;;;;;4862247;29;20506;-85
2021/08/21 10:45:00;;;;;;;10.07;8.63;;;22.20;82.60;;;;;;4862898;29;20053;-84
2021/08/21 10:47:34;;;;;;;10.40;8.60;;;22.30;83.30;;;;;;4861969;29;20057;-84
2021/08/21 10:50:29;;;;;;;10.40;7.95;;;22.40;84.10;;;;;;4862600;29;20061;-84
2021/08/21 10:52:57;;;;;;;9.38;7.75;;;22.40;83.30;;;;;;4862803;29;20493;-84
2021/08/21 10:55:37;;;;;;;11.40;8.25;;;22.50;82.80;;;;;;4862842;29;20053;-83
2021/08/21 10:58:24;;;;;;;11.00;9.05;;;22.50;81.50;;;;;;4863163;29;20049;-84
2021/08/21 11:01:03;;;;;;;10.23;8.85;;;22.60;83.10;;;;;;4862722;29;20399;-84
2021/08/21 11:03:29;;;;;;;10.35;8.68;;;22.60;84.70;;;;;;4862396;29;20106;-84
2021/08/21 11:06:04;;;;;;;11.85;7.00;;;22.70;85.70;;;;;;4862828;29;20057;-85
2021/08/21 11:08:57;;;;;;;10.60;8.07;;;22.70;82.80;;;;;;4862061;29;20053;-85
2021/08/21 11:11:29;;;;;;;10.00;7.65;;;22.70;81.80;;;;;;4862830;29;20076;-84
2021/08/21 11:14:19;;;;;;;10.18;7.55;;;22.80;81.20;;;;;;4862713;29;20154;-85
2021/08/21 11:17:02;;;;;;;9.60;7.60;;;22.80;80.10;;;;;;4861857;29;20057;-85
2021/08/21 11:19:44;;;;;;;8.38;6.40;;;22.90;81.70;;;;;;4862866;29;20402;-84
2021/08/21 11:22:13;;;;;;;9.23;6.22;;;23.00;80.90;;;;;;4863135;29;20189;-84
2021/08/21 11:24:58;;;;;;;8.60;6.90;;;23.00;79.10;;;;;;4861943;29;20045;-84
2021/08/21 11:27:35;;;;;;;9.48;7.13;;;23.00;81.60;;;;;;4862627;29;20569;-84
2021/08/21 11:30:11;;;;;;;8.48;6.05;;;23.00;82.80;;;;;;4862412;29;20057;-84
2021/08/21 11:32:43;;;;;;;7.25;4.85;;;23.10;82.20;;;;;;4862101;29;20486;-84
2021/08/21 11:35:32;;;;;;;7.22;5.00;;;23.20;81.00;;;;;;4862266;29;20057;-84
2021/08/21 11:38:08;;;;;;;5.60;3.17;;;23.20;81.60;;;;;;4861472;29;20482;-85
2021/08/21 11:40:45;;;;;;;6.78;5.00;;;23.20;78.90;;;;;;4861385;29;20054;-84
2021/08/21 11:43:12;;;;;;;5.88;3.78;;;23.30;81.30;;;;;;4862287;29;20053;-84
2021/08/21 11:45:39;;;;;;;6.80;4.57;;;23.30;80.30;;;;;;4861340;29;20053;-85
2021/08/21 11:48:05;;;;;;;5.80;4.32;;;23.30;81.00;;;;;;4862020;29;20049;-85
2021/08/21 11:50:33;;;;;;;5.20;3.30;;;23.40;83.50;;;;;;4861241;29;20092;-84
2021/08/21 11:53:05;;;;;;;7.40;4.97;;;23.40;81.60;;;;;;4861797;29;20109;-84
2021/08/21 11:55:34;;;;;;;5.07;3.35;;;23.40;83.10;;;;;;4861925;29;20053;-85
2021/08/21 11:58:00;;;;;;;5.85;3.90;;;23.50;80.30;;;;;;4861836;29;20046;-85
2021/08/21 12:00:28;;;;;;;7.45;4.72;;;23.50;79.40;;;;;;4861773;29;20057;-85
2021/08/21 12:03:03;;;;;;;7.20;4.85;;;23.50;82.90;;;;;;4861690;29;20077;-85
2021/08/21 12:05:33;;;;;;;6.05;4.18;;;23.60;85.20;;;;;;4860814;29;20060;-84
2021/08/21 12:08:13;;;;;;;5.80;4.45;;;23.70;83.40;;;;;;4862503;29;20056;-84
2021/08/21 12:10:52;;;;;;;4.75;3.25;;;23.70;85.00;;;;;;4862259;29;20085;-84
2021/08/21 12:13:38;;;;;;;6.22;3.97;;;23.70;82.70;;;;;;4861591;29;20054;-85
2021/08/21 12:16:08;;;;;;;5.53;3.60;;;23.80;81.50;;;;;;4862624;29;20060;-85
2021/08/21 12:18:39;;;;;;;6.55;5.00;;;23.80;78.50;;;;;;4861799;29;20122;-84
2021/08/21 12:21:06;;;;;;;8.65;5.22;;;23.90;81.70;;;;;;4862061;29;20114;-85
2021/08/21 12:23:34;;;;;;;6.50;4.47;;;23.90;78.50;;;;;;4862283;29;20153;-84
2021/08/21 12:26:01;;;;;;;8.93;4.60;;;23.90;79.80;;;;;;4861317;29;20053;-85
2021/08/21 12:28:36;;;;;;;6.43;4.68;;;23.90;77.60;;;;;;4861785;29;20061;-85
2021/08/21 12:31:04;;;;;;;7.40;5.07;;;24.00;80.20;;;;;;4862286;29;20113;-84
2021/08/21 12:33:34;;;;;;;8.02;4.32;;;24.00;81.00;;;;;;4861152;29;20050;-83
2021/08/21 12:36:13;;;;;;;7.35;4.05;;;24.10;79.70;;;;;;4861825;29;20064;-85
2021/08/21 12:38:41;;;;;;;6.13;3.80;;;24.10;76.50;;;;;;4861476;29;20060;-85